Preston, Iowa
Current Conditions -  °F | °C
As of 4:15 AM on Wednesday 26 Nov 2014 (Local Time) from KCWI Reporting Station
Clear Clear  
Wind Chill:   Ceiling: Unl
Heat Index: 16°   Visibility: 6mi
Dew Point: 12°   Wind: 8mph
Humidity: 86%   Direction: 80°E
Pressure: 30.11"   Gusts: NA
Location:  42.05°N, 90.41°W
Report Text: KCWI 261015Z AUTO 08007KT 6SM CLR M09/M11 A3011 RMK AO1
Loading
Personal Weather Stations






























Interactive Weather Map New forecast layout! Learn more

10-Day Weather Forecast

Advertisements
Track Severe Weather on mobile